sensor_id;sensor_type;location;lat;lon;timestamp;P1;durP1;ratioP1;P2;durP2;ratioP2
71395;SDS011;59888;55.814;37.132;2024-02-26T00:00:38;4.40;;;2.20;;
71395;SDS011;59888;55.814;37.132;2024-02-26T00:03:05;5.53;;;2.75;;
71395;SDS011;59888;55.814;37.132;2024-02-26T00:05:30;7.70;;;2.42;;
71395;SDS011;59888;55.814;37.132;2024-02-26T00:07:57;5.55;;;2.33;;
71395;SDS011;59888;55.814;37.132;2024-02-26T00:10:23;5.07;;;2.13;;
71395;SDS011;59888;55.814;37.132;2024-02-26T00:12:49;3.92;;;2.15;;
71395;SDS011;59888;55.814;37.132;2024-02-26T00:15:15;5.90;;;2.55;;
71395;SDS011;59888;55.814;37.132;2024-02-26T00:17:42;4.35;;;2.13;;
71395;SDS011;59888;55.814;37.132;2024-02-26T00:20:07;3.92;;;2.00;;
71395;SDS011;59888;55.814;37.132;2024-02-26T00:22:35;8.27;;;2.50;;
71395;SDS011;59888;55.814;37.132;2024-02-26T00:25:02;6.35;;;2.40;;
71395;SDS011;59888;55.814;37.132;2024-02-26T00:27:29;6.00;;;2.22;;
71395;SDS011;59888;55.814;37.132;2024-02-26T00:29:54;6.47;;;2.40;;
71395;SDS011;59888;55.814;37.132;2024-02-26T00:32:21;8.18;;;2.38;;
71395;SDS011;59888;55.814;37.132;2024-02-26T00:34:51;4.85;;;2.28;;
71395;SDS011;59888;55.814;37.132;2024-02-26T00:37:17;4.50;;;2.20;;
71395;SDS011;59888;55.814;37.132;2024-02-26T00:39:43;7.28;;;2.15;;
71395;SDS011;59888;55.814;37.132;2024-02-26T00:42:11;6.28;;;2.22;;
71395;SDS011;59888;55.814;37.132;2024-02-26T00:44:37;7.43;;;2.25;;
71395;SDS011;59888;55.814;37.132;2024-02-26T00:47:03;4.88;;;2.03;;
71395;SDS011;59888;55.814;37.132;2024-02-26T00:49:29;4.38;;;1.85;;
71395;SDS011;59888;55.814;37.132;2024-02-26T00:51:55;6.85;;;2.53;;
71395;SDS011;59888;55.814;37.132;2024-02-26T00:54:21;4.30;;;1.80;;
71395;SDS011;59888;55.814;37.132;2024-02-26T00:56:48;3.85;;;1.90;;
71395;SDS011;59888;55.814;37.132;2024-02-26T00:59:14;4.25;;;1.70;;
71395;SDS011;59888;55.814;37.132;2024-02-26T01:01:40;3.67;;;2.08;;
71395;SDS011;59888;55.814;37.132;2024-02-26T01:04:07;5.05;;;2.25;;
71395;SDS011;59888;55.814;37.132;2024-02-26T01:06:32;5.00;;;1.98;;
71395;SDS011;59888;55.814;37.132;2024-02-26T01:08:59;5.25;;;1.95;;
71395;SDS011;59888;55.814;37.132;2024-02-26T01:11:24;7.85;;;1.80;;
71395;SDS011;59888;55.814;37.132;2024-02-26T01:13:50;4.68;;;2.05;;
71395;SDS011;59888;55.814;37.132;2024-02-26T01:16:22;3.67;;;1.98;;
71395;SDS011;59888;55.814;37.132;2024-02-26T01:18:48;5.25;;;2.08;;
71395;SDS011;59888;55.814;37.132;2024-02-26T01:21:14;3.25;;;1.73;;
71395;SDS011;59888;55.814;37.132;2024-02-26T01:23:40;4.65;;;2.20;;
71395;SDS011;59888;55.814;37.132;2024-02-26T01:26:07;8.02;;;2.80;;
71395;SDS011;59888;55.814;37.132;2024-02-26T01:28:33;3.75;;;1.75;;
71395;SDS011;59888;55.814;37.132;2024-02-26T01:31:00;5.30;;;2.00;;
71395;SDS011;59888;55.814;37.132;2024-02-26T01:33:26;7.03;;;2.28;;
71395;SDS011;59888;55.814;37.132;2024-02-26T01:35:51;4.78;;;2.53;;
71395;SDS011;59888;55.814;37.132;2024-02-26T01:38:18;4.70;;;1.88;;
71395;SDS011;59888;55.814;37.132;2024-02-26T01:40:44;4.10;;;1.83;;
71395;SDS011;59888;55.814;37.132;2024-02-26T01:43:10;5.80;;;2.10;;
71395;SDS011;59888;55.814;37.132;2024-02-26T01:45:51;7.25;;;2.13;;
71395;SDS011;59888;55.814;37.132;2024-02-26T01:48:18;6.20;;;2.20;;
71395;SDS011;59888;55.814;37.132;2024-02-26T01:50:44;7.10;;;2.03;;
71395;SDS011;59888;55.814;37.132;2024-02-26T01:53:10;5.43;;;2.30;;
71395;SDS011;59888;55.814;37.132;2024-02-26T01:55:36;5.45;;;1.92;;
71395;SDS011;59888;55.814;37.132;2024-02-26T02:00:59;5.93;;;1.98;;
71395;SDS011;59888;55.814;37.132;2024-02-26T02:03:49;5.57;;;1.98;;
71395;SDS011;59888;55.814;37.132;2024-02-26T02:06:18;8.30;;;2.05;;
71395;SDS011;59888;55.814;37.132;2024-02-26T02:08:49;5.15;;;2.05;;
71395;SDS011;59888;55.814;37.132;2024-02-26T02:18:43;4.53;;;1.77;;
71395;SDS011;59888;55.814;37.132;2024-02-26T02:21:14;4.95;;;1.83;;
71395;SDS011;59888;55.814;37.132;2024-02-26T02:23:42;3.75;;;1.70;;
71395;SDS011;59888;55.814;37.132;2024-02-26T02:26:44;3.47;;;1.50;;
71395;SDS011;59888;55.814;37.132;2024-02-26T02:29:38;5.15;;;1.83;;
71395;SDS011;59888;55.814;37.132;2024-02-26T02:32:14;3.83;;;1.48;;
71395;SDS011;59888;55.814;37.132;2024-02-26T02:34:45;3.50;;;1.73;;
71395;SDS011;59888;55.814;37.132;2024-02-26T02:37:41;4.70;;;1.60;;
71395;SDS011;59888;55.814;37.132;2024-02-26T02:40:43;7.70;;;2.25;;
71395;SDS011;59888;55.814;37.132;2024-02-26T02:43:16;6.57;;;2.00;;
71395;SDS011;59888;55.814;37.132;2024-02-26T02:45:56;3.72;;;1.92;;
71395;SDS011;59888;55.814;37.132;2024-02-26T02:48:43;5.88;;;2.03;;
71395;SDS011;59888;55.814;37.132;2024-02-26T02:51:24;4.32;;;1.60;;
71395;SDS011;59888;55.814;37.132;2024-02-26T02:57:10;3.08;;;1.70;;
71395;SDS011;59888;55.814;37.132;2024-02-26T02:59:37;3.88;;;1.48;;
71395;SDS011;59888;55.814;37.132;2024-02-26T03:02:02;5.53;;;1.58;;
71395;SDS011;59888;55.814;37.132;2024-02-26T03:04:33;3.33;;;1.60;;
71395;SDS011;59888;55.814;37.132;2024-02-26T03:07:00;4.88;;;1.60;;
71395;SDS011;59888;55.814;37.132;2024-02-26T03:09:26;2.53;;;1.17;;
71395;SDS011;59888;55.814;37.132;2024-02-26T03:11:52;4.82;;;1.70;;
71395;SDS011;59888;55.814;37.132;2024-02-26T03:14:18;4.30;;;1.70;;
71395;SDS011;59888;55.814;37.132;2024-02-26T03:16:44;5.05;;;1.85;;
71395;SDS011;59888;55.814;37.132;2024-02-26T03:19:09;5.72;;;1.70;;
71395;SDS011;59888;55.814;37.132;2024-02-26T03:21:35;4.68;;;1.58;;
71395;SDS011;59888;55.814;37.132;2024-02-26T03:24:01;4.38;;;1.40;;
71395;SDS011;59888;55.814;37.132;2024-02-26T03:26:27;3.83;;;1.50;;
71395;SDS011;59888;55.814;37.132;2024-02-26T03:28:53;3.85;;;1.70;;
71395;SDS011;59888;55.814;37.132;2024-02-26T03:31:19;5.40;;;1.65;;
71395;SDS011;59888;55.814;37.132;2024-02-26T03:33:47;2.63;;;1.25;;
71395;SDS011;59888;55.814;37.132;2024-02-26T03:36:13;4.95;;;1.40;;
71395;SDS011;59888;55.814;37.132;2024-02-26T03:38:39;4.13;;;1.80;;
71395;SDS011;59888;55.814;37.132;2024-02-26T03:41:04;4.72;;;1.48;;
71395;SDS011;59888;55.814;37.132;2024-02-26T03:43:31;4.30;;;1.58;;
71395;SDS011;59888;55.814;37.132;2024-02-26T03:45:57;4.07;;;1.75;;
71395;SDS011;59888;55.814;37.132;2024-02-26T03:48:23;5.80;;;2.95;;
71395;SDS011;59888;55.814;37.132;2024-02-26T03:50:48;4.60;;;1.65;;
71395;SDS011;59888;55.814;37.132;2024-02-26T03:53:16;4.47;;;1.80;;
71395;SDS011;59888;55.814;37.132;2024-02-26T03:55:42;5.10;;;1.88;;
71395;SDS011;59888;55.814;37.132;2024-02-26T03:58:12;3.38;;;1.40;;
71395;SDS011;59888;55.814;37.132;2024-02-26T04:00:37;6.18;;;1.77;;
71395;SDS011;59888;55.814;37.132;2024-02-26T04:03:10;4.55;;;1.70;;
71395;SDS011;59888;55.814;37.132;2024-02-26T04:08:21;4.22;;;1.65;;
71395;SDS011;59888;55.814;37.132;2024-02-26T04:10:47;4.65;;;1.75;;
71395;SDS011;59888;55.814;37.132;2024-02-26T04:13:13;4.50;;;1.65;;
71395;SDS011;59888;55.814;37.132;2024-02-26T04:15:40;5.43;;;1.88;;
71395;SDS011;59888;55.814;37.132;2024-02-26T04:18:06;3.45;;;1.35;;
71395;SDS011;59888;55.814;37.132;2024-02-26T04:20:31;2.88;;;1.60;;
71395;SDS011;59888;55.814;37.132;2024-02-26T04:22:58;3.60;;;1.35;;
71395;SDS011;59888;55.814;37.132;2024-02-26T04:25:23;3.45;;;1.80;;
71395;SDS011;59888;55.814;37.132;2024-02-26T04:27:49;4.10;;;1.48;;
71395;SDS011;59888;55.814;37.132;2024-02-26T04:30:15;4.50;;;1.40;;
71395;SDS011;59888;55.814;37.132;2024-02-26T04:32:42;3.75;;;1.48;;
71395;SDS011;59888;55.814;37.132;2024-02-26T04:35:08;3.25;;;1.52;;
71395;SDS011;59888;55.814;37.132;2024-02-26T04:37:34;4.07;;;1.63;;
71395;SDS011;59888;55.814;37.132;2024-02-26T04:40:00;3.80;;;1.67;;
71395;SDS011;59888;55.814;37.132;2024-02-26T04:42:26;3.53;;;1.63;;
71395;SDS011;59888;55.814;37.132;2024-02-26T04:44:52;5.07;;;1.73;;
71395;SDS011;59888;55.814;37.132;2024-02-26T04:47:18;3.17;;;1.58;;
71395;SDS011;59888;55.814;37.132;2024-02-26T04:49:44;5.75;;;1.90;;
71395;SDS011;59888;55.814;37.132;2024-02-26T04:52:11;5.20;;;1.85;;
71395;SDS011;59888;55.814;37.132;2024-02-26T04:54:47;4.32;;;1.85;;
71395;SDS011;59888;55.814;37.132;2024-02-26T04:57:14;3.90;;;1.75;;
71395;SDS011;59888;55.814;37.132;2024-02-26T04:59:40;4.45;;;1.75;;
71395;SDS011;59888;55.814;37.132;2024-02-26T05:02:08;9.20;;;1.70;;
71395;SDS011;59888;55.814;37.132;2024-02-26T05:04:34;6.25;;;2.17;;
71395;SDS011;59888;55.814;37.132;2024-02-26T05:07:00;5.68;;;1.98;;
71395;SDS011;59888;55.814;37.132;2024-02-26T05:09:25;4.60;;;1.70;;
71395;SDS011;59888;55.814;37.132;2024-02-26T05:11:52;5.45;;;2.15;;
71395;SDS011;59888;55.814;37.132;2024-02-26T05:14:18;4.47;;;1.88;;
71395;SDS011;59888;55.814;37.132;2024-02-26T05:16:44;6.53;;;1.90;;
71395;SDS011;59888;55.814;37.132;2024-02-26T05:19:10;4.20;;;1.75;;
71395;SDS011;59888;55.814;37.132;2024-02-26T05:21:36;4.90;;;1.90;;
71395;SDS011;59888;55.814;37.132;2024-02-26T05:24:02;5.80;;;1.90;;
71395;SDS011;59888;55.814;37.132;2024-02-26T05:26:28;5.53;;;2.03;;
71395;SDS011;59888;55.814;37.132;2024-02-26T05:28:54;5.80;;;2.10;;
71395;SDS011;59888;55.814;37.132;2024-02-26T05:31:25;6.85;;;2.00;;
71395;SDS011;59888;55.814;37.132;2024-02-26T05:33:56;3.55;;;1.80;;
71395;SDS011;59888;55.814;37.132;2024-02-26T05:36:22;7.53;;;2.08;;
71395;SDS011;59888;55.814;37.132;2024-02-26T05:38:48;5.00;;;2.35;;
71395;SDS011;59888;55.814;37.132;2024-02-26T05:41:16;6.82;;;2.10;;
71395;SDS011;59888;55.814;37.132;2024-02-26T05:43:42;6.10;;;2.40;;
71395;SDS011;59888;55.814;37.132;2024-02-26T05:46:07;7.00;;;2.88;;
71395;SDS011;59888;55.814;37.132;2024-02-26T05:48:35;5.38;;;2.13;;
71395;SDS011;59888;55.814;37.132;2024-02-26T05:51:01;5.60;;;2.40;;
71395;SDS011;59888;55.814;37.132;2024-02-26T05:53:27;4.20;;;1.90;;
71395;SDS011;59888;55.814;37.132;2024-02-26T05:55:53;5.53;;;2.33;;
71395;SDS011;59888;55.814;37.132;2024-02-26T05:58:18;6.65;;;2.17;;
71395;SDS011;59888;55.814;37.132;2024-02-26T06:00:44;5.35;;;2.13;;
71395;SDS011;59888;55.814;37.132;2024-02-26T06:03:14;7.97;;;2.55;;
71395;SDS011;59888;55.814;37.132;2024-02-26T06:05:50;7.95;;;2.42;;
71395;SDS011;59888;55.814;37.132;2024-02-26T06:08:16;5.28;;;2.13;;
71395;SDS011;59888;55.814;37.132;2024-02-26T06:10:42;6.10;;;2.10;;
71395;SDS011;59888;55.814;37.132;2024-02-26T06:13:08;5.35;;;2.72;;
71395;SDS011;59888;55.814;37.132;2024-02-26T06:15:34;9.82;;;2.80;;
71395;SDS011;59888;55.814;37.132;2024-02-26T06:18:00;6.25;;;2.33;;
71395;SDS011;59888;55.814;37.132;2024-02-26T06:20:25;5.38;;;2.50;;
71395;SDS011;59888;55.814;37.132;2024-02-26T06:22:51;5.53;;;2.45;;
71395;SDS011;59888;55.814;37.132;2024-02-26T06:25:17;7.10;;;2.90;;
71395;SDS011;59888;55.814;37.132;2024-02-26T06:27:42;8.85;;;2.60;;
71395;SDS011;59888;55.814;37.132;2024-02-26T06:30:09;5.97;;;2.42;;
71395;SDS011;59888;55.814;37.132;2024-02-26T06:32:39;7.03;;;2.63;;
71395;SDS011;59888;55.814;37.132;2024-02-26T06:35:05;8.88;;;2.60;;
71395;SDS011;59888;55.814;37.132;2024-02-26T06:37:35;6.78;;;2.75;;
71395;SDS011;59888;55.814;37.132;2024-02-26T06:40:05;6.78;;;2.50;;
71395;SDS011;59888;55.814;37.132;2024-02-26T06:42:35;10.23;;;3.47;;
71395;SDS011;59888;55.814;37.132;2024-02-26T06:45:02;7.13;;;2.85;;
71395;SDS011;59888;55.814;37.132;2024-02-26T06:47:30;7.38;;;2.83;;
71395;SDS011;59888;55.814;37.132;2024-02-26T06:49:57;8.93;;;2.88;;
71395;SDS011;59888;55.814;37.132;2024-02-26T06:52:23;8.55;;;2.95;;
71395;SDS011;59888;55.814;37.132;2024-02-26T06:57:36;6.32;;;2.70;;
71395;SDS011;59888;55.814;37.132;2024-02-26T07:00:03;9.90;;;3.20;;
71395;SDS011;59888;55.814;37.132;2024-02-26T07:02:30;5.85;;;2.75;;
71395;SDS011;59888;55.814;37.132;2024-02-26T07:04:57;9.05;;;3.08;;
71395;SDS011;59888;55.814;37.132;2024-02-26T07:07:24;5.38;;;2.72;;
71395;SDS011;59888;55.814;37.132;2024-02-26T07:09:52;6.50;;;2.70;;
71395;SDS011;59888;55.814;37.132;2024-02-26T07:12:19;7.03;;;2.60;;
71395;SDS011;59888;55.814;37.132;2024-02-26T07:14:47;7.38;;;2.92;;
71395;SDS011;59888;55.814;37.132;2024-02-26T07:17:13;8.60;;;2.97;;
71395;SDS011;59888;55.814;37.132;2024-02-26T07:19:42;5.70;;;2.60;;
71395;SDS011;59888;55.814;37.132;2024-02-26T07:22:08;5.63;;;2.63;;
71395;SDS011;59888;55.814;37.132;2024-02-26T07:24:33;6.68;;;2.70;;
71395;SDS011;59888;55.814;37.132;2024-02-26T07:26:59;5.75;;;2.38;;
71395;SDS011;59888;55.814;37.132;2024-02-26T07:29:25;7.13;;;3.13;;
71395;SDS011;59888;55.814;37.132;2024-02-26T07:31:51;7.50;;;3.03;;
71395;SDS011;59888;55.814;37.132;2024-02-26T07:34:20;9.25;;;2.88;;
71395;SDS011;59888;55.814;37.132;2024-02-26T07:36:55;6.15;;;2.70;;
71395;SDS011;59888;55.814;37.132;2024-02-26T07:39:22;6.97;;;3.10;;
71395;SDS011;59888;55.814;37.132;2024-02-26T07:41:48;7.32;;;2.60;;
71395;SDS011;59888;55.814;37.132;2024-02-26T07:44:17;7.18;;;3.03;;
71395;SDS011;59888;55.814;37.132;2024-02-26T07:46:45;6.40;;;2.80;;
71395;SDS011;59888;55.814;37.132;2024-02-26T07:49:11;9.02;;;3.10;;
71395;SDS011;59888;55.814;37.132;2024-02-26T07:51:37;6.40;;;2.85;;
71395;SDS011;59888;55.814;37.132;2024-02-26T07:54:03;8.95;;;3.00;;
71395;SDS011;59888;55.814;37.132;2024-02-26T07:56:29;8.98;;;2.70;;
71395;SDS011;59888;55.814;37.132;2024-02-26T07:58:54;5.85;;;2.85;;
71395;SDS011;59888;55.814;37.132;2024-02-26T08:01:20;7.10;;;2.80;;
71395;SDS011;59888;55.814;37.132;2024-02-26T08:03:46;7.43;;;2.90;;
71395;SDS011;59888;55.814;37.132;2024-02-26T08:06:12;7.53;;;3.00;;
71395;SDS011;59888;55.814;37.132;2024-02-26T08:08:38;8.52;;;3.22;;
71395;SDS011;59888;55.814;37.132;2024-02-26T08:11:03;7.45;;;3.00;;
71395;SDS011;59888;55.814;37.132;2024-02-26T08:13:29;7.63;;;3.10;;
71395;SDS011;59888;55.814;37.132;2024-02-26T08:15:56;9.55;;;3.17;;
71395;SDS011;59888;55.814;37.132;2024-02-26T08:18:22;5.00;;;2.50;;
71395;SDS011;59888;55.814;37.132;2024-02-26T08:20:49;8.02;;;3.17;;
71395;SDS011;59888;55.814;37.132;2024-02-26T08:23:17;6.65;;;2.80;;
71395;SDS011;59888;55.814;37.132;2024-02-26T08:25:43;6.03;;;3.00;;
71395;SDS011;59888;55.814;37.132;2024-02-26T08:28:08;10.00;;;2.88;;
71395;SDS011;59888;55.814;37.132;2024-02-26T08:30:39;8.02;;;3.40;;
71395;SDS011;59888;55.814;37.132;2024-02-26T08:33:04;6.07;;;3.10;;
71395;SDS011;59888;55.814;37.132;2024-02-26T08:35:30;7.60;;;3.17;;
71395;SDS011;59888;55.814;37.132;2024-02-26T08:37:57;6.40;;;2.75;;
71395;SDS011;59888;55.814;37.132;2024-02-26T08:40:23;9.45;;;3.00;;
71395;SDS011;59888;55.814;37.132;2024-02-26T08:42:49;7.88;;;2.88;;
71395;SDS011;59888;55.814;37.132;2024-02-26T08:45:15;6.72;;;2.90;;
71395;SDS011;59888;55.814;37.132;2024-02-26T08:47:41;6.75;;;3.40;;
71395;SDS011;59888;55.814;37.132;2024-02-26T08:50:07;9.27;;;3.30;;
71395;SDS011;59888;55.814;37.132;2024-02-26T08:52:35;9.02;;;3.33;;
71395;SDS011;59888;55.814;37.132;2024-02-26T08:55:01;7.35;;;3.33;;
71395;SDS011;59888;55.814;37.132;2024-02-26T08:57:29;7.45;;;3.42;;
71395;SDS011;59888;55.814;37.132;2024-02-26T08:59:55;7.80;;;3.40;;
71395;SDS011;59888;55.814;37.132;2024-02-26T09:02:21;8.80;;;3.42;;
71395;SDS011;59888;55.814;37.132;2024-02-26T09:04:47;6.93;;;3.13;;
71395;SDS011;59888;55.814;37.132;2024-02-26T09:07:13;9.93;;;3.50;;
71395;SDS011;59888;55.814;37.132;2024-02-26T09:09:39;8.73;;;3.05;;
71395;SDS011;59888;55.814;37.132;2024-02-26T09:12:04;7.13;;;3.03;;
71395;SDS011;59888;55.814;37.132;2024-02-26T09:14:30;7.35;;;3.47;;
71395;SDS011;59888;55.814;37.132;2024-02-26T09:16:56;6.25;;;2.85;;
71395;SDS011;59888;55.814;37.132;2024-02-26T09:19:22;6.90;;;3.30;;
71395;SDS011;59888;55.814;37.132;2024-02-26T09:21:51;6.75;;;3.03;;
71395;SDS011;59888;55.814;37.132;2024-02-26T09:24:16;7.80;;;3.53;;
71395;SDS011;59888;55.814;37.132;2024-02-26T09:26:42;6.47;;;3.40;;
71395;SDS011;59888;55.814;37.132;2024-02-26T09:29:08;8.32;;;2.95;;
71395;SDS011;59888;55.814;37.132;2024-02-26T09:31:34;9.05;;;3.28;;
71395;SDS011;59888;55.814;37.132;2024-02-26T09:33:59;9.02;;;3.60;;
71395;SDS011;59888;55.814;37.132;2024-02-26T09:36:25;8.45;;;3.10;;
71395;SDS011;59888;55.814;37.132;2024-02-26T09:38:52;6.93;;;3.20;;
71395;SDS011;59888;55.814;37.132;2024-02-26T09:41:18;7.53;;;3.30;;
71395;SDS011;59888;55.814;37.132;2024-02-26T09:43:46;5.05;;;2.78;;
71395;SDS011;59888;55.814;37.132;2024-02-26T09:46:14;9.23;;;3.55;;
71395;SDS011;59888;55.814;37.132;2024-02-26T09:48:42;8.65;;;3.55;;
71395;SDS011;59888;55.814;37.132;2024-02-26T09:51:12;8.40;;;2.95;;
71395;SDS011;59888;55.814;37.132;2024-02-26T09:53:39;8.15;;;3.00;;
71395;SDS011;59888;55.814;37.132;2024-02-26T09:56:08;6.47;;;3.35;;
71395;SDS011;59888;55.814;37.132;2024-02-26T09:58:35;7.10;;;2.92;;
71395;SDS011;59888;55.814;37.132;2024-02-26T10:01:02;8.25;;;3.63;;
71395;SDS011;59888;55.814;37.132;2024-02-26T10:03:34;11.70;;;4.30;;
71395;SDS011;59888;55.814;37.132;2024-02-26T10:06:04;8.68;;;3.63;;
71395;SDS011;59888;55.814;37.132;2024-02-26T10:08:31;8.30;;;3.83;;
71395;SDS011;59888;55.814;37.132;2024-02-26T10:10:56;7.28;;;3.33;;
71395;SDS011;59888;55.814;37.132;2024-02-26T10:13:23;7.18;;;3.50;;
71395;SDS011;59888;55.814;37.132;2024-02-26T10:15:48;8.90;;;3.25;;
71395;SDS011;59888;55.814;37.132;2024-02-26T10:18:15;8.95;;;3.72;;
71395;SDS011;59888;55.814;37.132;2024-02-26T10:20:42;11.43;;;4.00;;
71395;SDS011;59888;55.814;37.132;2024-02-26T10:23:07;8.10;;;3.03;;
71395;SDS011;59888;55.814;37.132;2024-02-26T10:25:33;6.95;;;3.30;;
71395;SDS011;59888;55.814;37.132;2024-02-26T10:28:01;8.73;;;3.50;;
71395;SDS011;59888;55.814;37.132;2024-02-26T10:30:30;8.25;;;3.17;;
71395;SDS011;59888;55.814;37.132;2024-02-26T10:32:56;6.20;;;3.35;;
71395;SDS011;59888;55.814;37.132;2024-02-26T10:35:27;13.35;;;4.85;;
71395;SDS011;59888;55.814;37.132;2024-02-26T10:37:54;9.13;;;3.63;;
71395;SDS011;59888;55.814;37.132;2024-02-26T10:40:19;6.95;;;3.35;;
71395;SDS011;59888;55.814;37.132;2024-02-26T10:42:48;7.88;;;3.00;;
71395;SDS011;59888;55.814;37.132;2024-02-26T10:45:21;10.73;;;3.28;;
71395;SDS011;59888;55.814;37.132;2024-02-26T10:47:48;8.75;;;3.28;;
71395;SDS011;59888;55.814;37.132;2024-02-26T10:50:14;6.43;;;2.97;;
71395;SDS011;59888;55.814;37.132;2024-02-26T10:52:43;7.88;;;3.65;;
71395;SDS011;59888;55.814;37.132;2024-02-26T10:55:12;8.27;;;3.58;;
71395;SDS011;59888;55.814;37.132;2024-02-26T10:57:39;10.38;;;3.60;;
71395;SDS011;59888;55.814;37.132;2024-02-26T11:00:06;12.27;;;3.83;;
71395;SDS011;59888;55.814;37.132;2024-02-26T11:02:35;9.02;;;3.55;;
71395;SDS011;59888;55.814;37.132;2024-02-26T11:05:04;16.42;;;6.95;;
71395;SDS011;59888;55.814;37.132;2024-02-26T11:07:31;10.52;;;5.03;;
71395;SDS011;59888;55.814;37.132;2024-02-26T11:10:01;14.63;;;5.75;;
71395;SDS011;59888;55.814;37.132;2024-02-26T11:12:29;13.55;;;4.53;;
71395;SDS011;59888;55.814;37.132;2024-02-26T11:14:55;21.13;;;8.43;;
71395;SDS011;59888;55.814;37.132;2024-02-26T11:17:28;8.52;;;3.78;;
71395;SDS011;59888;55.814;37.132;2024-02-26T11:19:58;9.32;;;3.53;;
71395;SDS011;59888;55.814;37.132;2024-02-26T11:22:24;12.75;;;4.00;;
71395;SDS011;59888;55.814;37.132;2024-02-26T11:24:52;10.63;;;3.25;;
71395;SDS011;59888;55.814;37.132;2024-02-26T11:27:21;8.20;;;3.15;;
71395;SDS011;59888;55.814;37.132;2024-02-26T11:29:50;8.40;;;3.58;;
71395;SDS011;59888;55.814;37.132;2024-02-26T11:32:17;9.45;;;3.42;;
71395;SDS011;59888;55.814;37.132;2024-02-26T11:34:43;11.43;;;3.55;;
71395;SDS011;59888;55.814;37.132;2024-02-26T11:37:18;10.13;;;3.55;;
71395;SDS011;59888;55.814;37.132;2024-02-26T11:39:45;8.95;;;3.15;;
71395;SDS011;59888;55.814;37.132;2024-02-26T11:42:13;6.28;;;2.90;;
71395;SDS011;59888;55.814;37.132;2024-02-26T11:44:39;7.28;;;3.17;;
71395;SDS011;59888;55.814;37.132;2024-02-26T11:47:14;7.40;;;3.75;;
71395;SDS011;59888;55.814;37.132;2024-02-26T11:49:43;7.63;;;3.22;;
71395;SDS011;59888;55.814;37.132;2024-02-26T11:52:09;9.30;;;3.22;;
71395;SDS011;59888;55.814;37.132;2024-02-26T11:57:27;10.68;;;3.10;;
71395;SDS011;59888;55.814;37.132;2024-02-26T12:00:02;10.95;;;3.15;;
71395;SDS011;59888;55.814;37.132;2024-02-26T12:02:39;11.32;;;3.45;;
71395;SDS011;59888;55.814;37.132;2024-02-26T12:05:07;8.52;;;3.28;;
71395;SDS011;59888;55.814;37.132;2024-02-26T12:07:34;9.65;;;3.38;;
71395;SDS011;59888;55.814;37.132;2024-02-26T12:12:45;10.27;;;3.67;;
71395;SDS011;59888;55.814;37.132;2024-02-26T12:15:13;8.82;;;3.03;;
71395;SDS011;59888;55.814;37.132;2024-02-26T12:17:40;8.75;;;3.28;;
71395;SDS011;59888;55.814;37.132;2024-02-26T12:20:10;7.82;;;3.38;;
71395;SDS011;59888;55.814;37.132;2024-02-26T12:22:38;10.70;;;3.30;;
71395;SDS011;59888;55.814;37.132;2024-02-26T12:25:05;10.23;;;3.47;;
71395;SDS011;59888;55.814;37.132;2024-02-26T12:27:31;7.97;;;3.20;;
71395;SDS011;59888;55.814;37.132;2024-02-26T12:29:57;9.50;;;3.50;;
71395;SDS011;59888;55.814;37.132;2024-02-26T12:32:23;6.75;;;2.95;;
71395;SDS011;59888;55.814;37.132;2024-02-26T12:34:48;7.22;;;3.03;;
71395;SDS011;59888;55.814;37.132;2024-02-26T12:37:16;9.50;;;3.63;;
71395;SDS011;59888;55.814;37.132;2024-02-26T12:39:42;11.90;;;3.50;;
71395;SDS011;59888;55.814;37.132;2024-02-26T12:42:08;7.65;;;3.40;;
71395;SDS011;59888;55.814;37.132;2024-02-26T12:44:36;8.63;;;3.17;;
71395;SDS011;59888;55.814;37.132;2024-02-26T12:47:03;7.32;;;3.50;;
71395;SDS011;59888;55.814;37.132;2024-02-26T12:49:28;8.80;;;3.78;;
71395;SDS011;59888;55.814;37.132;2024-02-26T12:51:55;8.18;;;3.17;;
71395;SDS011;59888;55.814;37.132;2024-02-26T12:54:33;10.20;;;3.30;;
71395;SDS011;59888;55.814;37.132;2024-02-26T12:57:01;6.30;;;3.33;;
71395;SDS011;59888;55.814;37.132;2024-02-26T12:59:29;10.70;;;3.45;;
71395;SDS011;59888;55.814;37.132;2024-02-26T13:01:56;7.45;;;3.08;;
71395;SDS011;59888;55.814;37.132;2024-02-26T13:04:28;10.30;;;3.13;;
71395;SDS011;59888;55.814;37.132;2024-02-26T13:06:54;9.73;;;3.45;;
71395;SDS011;59888;55.814;37.132;2024-02-26T13:09:20;9.00;;;3.30;;
71395;SDS011;59888;55.814;37.132;2024-02-26T13:14:40;9.73;;;3.03;;
71395;SDS011;59888;55.814;37.132;2024-02-26T13:17:06;9.35;;;3.72;;
71395;SDS011;59888;55.814;37.132;2024-02-26T13:19:32;11.63;;;3.20;;
71395;SDS011;59888;55.814;37.132;2024-02-26T13:22:04;9.93;;;3.58;;
71395;SDS011;59888;55.814;37.132;2024-02-26T13:24:35;15.82;;;3.30;;
71395;SDS011;59888;55.814;37.132;2024-02-26T13:27:02;8.05;;;3.45;;
71395;SDS011;59888;55.814;37.132;2024-02-26T13:29:30;7.47;;;3.10;;
71395;SDS011;59888;55.814;37.132;2024-02-26T13:31:58;10.65;;;3.72;;
71395;SDS011;59888;55.814;37.132;2024-02-26T13:34:27;8.82;;;3.22;;
71395;SDS011;59888;55.814;37.132;2024-02-26T13:36:53;12.00;;;3.53;;
71395;SDS011;59888;55.814;37.132;2024-02-26T13:39:24;8.27;;;3.00;;
71395;SDS011;59888;55.814;37.132;2024-02-26T13:41:53;6.57;;;3.10;;
71395;SDS011;59888;55.814;37.132;2024-02-26T13:44:24;14.98;;;3.30;;
71395;SDS011;59888;55.814;37.132;2024-02-26T13:47:18;11.55;;;3.05;;
71395;SDS011;59888;55.814;37.132;2024-02-26T13:49:44;9.63;;;3.38;;
71395;SDS011;59888;55.814;37.132;2024-02-26T13:52:09;8.35;;;3.20;;
71395;SDS011;59888;55.814;37.132;2024-02-26T13:54:35;9.10;;;2.97;;
71395;SDS011;59888;55.814;37.132;2024-02-26T13:57:04;8.48;;;2.85;;
71395;SDS011;59888;55.814;37.132;2024-02-26T13:59:30;8.65;;;3.17;;
71395;SDS011;59888;55.814;37.132;2024-02-26T14:01:56;5.72;;;2.92;;
71395;SDS011;59888;55.814;37.132;2024-02-26T14:04:22;11.40;;;3.40;;
71395;SDS011;59888;55.814;37.132;2024-02-26T14:06:47;6.55;;;3.05;;
71395;SDS011;59888;55.814;37.132;2024-02-26T14:09:15;7.60;;;3.28;;
71395;SDS011;59888;55.814;37.132;2024-02-26T14:11:47;13.55;;;3.40;;
71395;SDS011;59888;55.814;37.132;2024-02-26T14:14:13;8.93;;;3.67;;
71395;SDS011;59888;55.814;37.132;2024-02-26T14:16:41;8.35;;;3.33;;
71395;SDS011;59888;55.814;37.132;2024-02-26T14:19:12;8.45;;;3.72;;
71395;SDS011;59888;55.814;37.132;2024-02-26T14:21:38;6.75;;;3.28;;
71395;SDS011;59888;55.814;37.132;2024-02-26T14:24:04;11.45;;;2.90;;
71395;SDS011;59888;55.814;37.132;2024-02-26T14:26:29;8.65;;;3.08;;
71395;SDS011;59888;55.814;37.132;2024-02-26T14:28:55;7.53;;;3.38;;
71395;SDS011;59888;55.814;37.132;2024-02-26T14:31:23;9.65;;;3.30;;
71395;SDS011;59888;55.814;37.132;2024-02-26T14:33:49;7.43;;;3.08;;
71395;SDS011;59888;55.814;37.132;2024-02-26T14:36:18;8.88;;;3.22;;
71395;SDS011;59888;55.814;37.132;2024-02-26T14:38:45;10.15;;;3.20;;
71395;SDS011;59888;55.814;37.132;2024-02-26T14:41:11;8.05;;;3.05;;
71395;SDS011;59888;55.814;37.132;2024-02-26T14:43:37;9.75;;;3.13;;
71395;SDS011;59888;55.814;37.132;2024-02-26T14:46:03;8.50;;;3.00;;
71395;SDS011;59888;55.814;37.132;2024-02-26T14:48:30;7.93;;;3.10;;
71395;SDS011;59888;55.814;37.132;2024-02-26T14:50:57;10.27;;;2.92;;
71395;SDS011;59888;55.814;37.132;2024-02-26T14:53:23;18.33;;;3.88;;
71395;SDS011;59888;55.814;37.132;2024-02-26T14:55:59;8.32;;;3.03;;
71395;SDS011;59888;55.814;37.132;2024-02-26T14:58:27;8.10;;;2.97;;
71395;SDS011;59888;55.814;37.132;2024-02-26T15:00:52;8.75;;;3.00;;
71395;SDS011;59888;55.814;37.132;2024-02-26T15:03:18;7.35;;;2.65;;